sensor_id;sensor_type;location;lat;lon;timestamp;P1;durP1;ratioP1;P2;durP2;ratioP2
76978;SDS011;65911;47.502;19.148;2023-11-18T00:02:16;3.17;;;2.78;;
76978;SDS011;65911;47.502;19.148;2023-11-18T00:05:20;3.15;;;2.85;;
76978;SDS011;65911;47.502;19.148;2023-11-18T00:08:23;3.47;;;2.88;;
76978;SDS011;65911;47.502;19.148;2023-11-18T00:11:26;4.60;;;2.78;;
76978;SDS011;65911;47.502;19.148;2023-11-18T00:14:29;3.78;;;2.83;;
76978;SDS011;65911;47.502;19.148;2023-11-18T00:17:31;3.45;;;2.90;;
76978;SDS011;65911;47.502;19.148;2023-11-18T00:20:34;3.23;;;2.53;;
76978;SDS011;65911;47.502;19.148;2023-11-18T00:23:37;4.25;;;2.80;;
76978;SDS011;65911;47.502;19.148;2023-11-18T00:26:39;3.30;;;2.60;;
76978;SDS011;65911;47.502;19.148;2023-11-18T00:29:42;3.23;;;2.90;;
76978;SDS011;65911;47.502;19.148;2023-11-18T00:32:45;3.65;;;2.60;;
76978;SDS011;65911;47.502;19.148;2023-11-18T00:35:48;3.90;;;2.67;;
76978;SDS011;65911;47.502;19.148;2023-11-18T00:38:50;2.95;;;2.60;;
76978;SDS011;65911;47.502;19.148;2023-11-18T00:41:52;3.15;;;2.58;;
76978;SDS011;65911;47.502;19.148;2023-11-18T00:44:55;3.78;;;2.95;;
76978;SDS011;65911;47.502;19.148;2023-11-18T00:47:57;3.42;;;3.10;;
76978;SDS011;65911;47.502;19.148;2023-11-18T00:51:00;3.63;;;2.30;;
76978;SDS011;65911;47.502;19.148;2023-11-18T00:54:02;3.03;;;2.70;;
76978;SDS011;65911;47.502;19.148;2023-11-18T00:57:07;3.17;;;2.72;;
76978;SDS011;65911;47.502;19.148;2023-11-18T01:00:11;4.20;;;2.93;;
76978;SDS011;65911;47.502;19.148;2023-11-18T01:03:23;3.90;;;2.38;;
76978;SDS011;65911;47.502;19.148;2023-11-18T01:06:26;3.85;;;2.90;;
76978;SDS011;65911;47.502;19.148;2023-11-18T01:09:28;3.78;;;2.60;;
76978;SDS011;65911;47.502;19.148;2023-11-18T01:12:31;4.32;;;2.97;;
76978;SDS011;65911;47.502;19.148;2023-11-18T01:15:33;3.95;;;3.25;;
76978;SDS011;65911;47.502;19.148;2023-11-18T01:18:36;3.25;;;2.53;;
76978;SDS011;65911;47.502;19.148;2023-11-18T01:21:38;3.47;;;2.83;;
76978;SDS011;65911;47.502;19.148;2023-11-18T01:24:44;3.08;;;2.60;;
76978;SDS011;65911;47.502;19.148;2023-11-18T01:27:47;3.50;;;2.80;;
76978;SDS011;65911;47.502;19.148;2023-11-18T01:30:51;3.40;;;3.10;;
76978;SDS011;65911;47.502;19.148;2023-11-18T01:33:56;3.47;;;2.70;;
76978;SDS011;65911;47.502;19.148;2023-11-18T01:36:58;3.05;;;2.63;;
76978;SDS011;65911;47.502;19.148;2023-11-18T01:40:00;3.08;;;2.78;;
76978;SDS011;65911;47.502;19.148;2023-11-18T01:43:10;2.40;;;2.20;;
76978;SDS011;65911;47.502;19.148;2023-11-18T01:46:15;3.40;;;2.75;;
76978;SDS011;65911;47.502;19.148;2023-11-18T01:49:18;3.35;;;2.72;;
76978;SDS011;65911;47.502;19.148;2023-11-18T01:52:22;3.97;;;2.73;;
76978;SDS011;65911;47.502;19.148;2023-11-18T01:55:24;3.45;;;2.90;;
76978;SDS011;65911;47.502;19.148;2023-11-18T01:58:26;2.83;;;2.50;;
76978;SDS011;65911;47.502;19.148;2023-11-18T02:01:29;3.40;;;3.00;;
76978;SDS011;65911;47.502;19.148;2023-11-18T02:04:32;2.97;;;2.65;;
76978;SDS011;65911;47.502;19.148;2023-11-18T02:07:35;3.85;;;2.97;;
76978;SDS011;65911;47.502;19.148;2023-11-18T02:10:44;3.78;;;2.53;;
76978;SDS011;65911;47.502;19.148;2023-11-18T02:13:53;3.65;;;2.80;;
76978;SDS011;65911;47.502;19.148;2023-11-18T02:16:56;2.75;;;2.50;;
76978;SDS011;65911;47.502;19.148;2023-11-18T02:20:01;3.15;;;2.85;;
76978;SDS011;65911;47.502;19.148;2023-11-18T02:23:08;2.90;;;2.60;;
76978;SDS011;65911;47.502;19.148;2023-11-18T02:26:10;3.55;;;2.58;;
76978;SDS011;65911;47.502;19.148;2023-11-18T02:29:13;3.30;;;3.00;;
76978;SDS011;65911;47.502;19.148;2023-11-18T02:35:59;3.47;;;2.30;;
76978;SDS011;65911;47.502;19.148;2023-11-18T02:39:20;2.80;;;2.58;;
76978;SDS011;65911;47.502;19.148;2023-11-18T02:42:24;3.25;;;2.40;;
76978;SDS011;65911;47.502;19.148;2023-11-18T02:45:26;3.08;;;2.42;;
76978;SDS011;65911;47.502;19.148;2023-11-18T02:48:29;3.38;;;2.53;;
76978;SDS011;65911;47.502;19.148;2023-11-18T02:51:33;3.63;;;2.72;;
76978;SDS011;65911;47.502;19.148;2023-11-18T02:54:41;3.47;;;2.80;;
76978;SDS011;65911;47.502;19.148;2023-11-18T02:57:43;2.58;;;2.20;;
76978;SDS011;65911;47.502;19.148;2023-11-18T03:00:45;2.78;;;2.17;;
76978;SDS011;65911;47.502;19.148;2023-11-18T03:03:48;2.63;;;2.37;;
76978;SDS011;65911;47.502;19.148;2023-11-18T03:06:50;3.08;;;2.15;;
76978;SDS011;65911;47.502;19.148;2023-11-18T03:09:53;2.38;;;2.00;;
76978;SDS011;65911;47.502;19.148;2023-11-18T03:12:59;3.00;;;2.42;;
76978;SDS011;65911;47.502;19.148;2023-11-18T03:16:01;2.83;;;2.63;;
76978;SDS011;65911;47.502;19.148;2023-11-18T03:19:04;4.03;;;2.90;;
76978;SDS011;65911;47.502;19.148;2023-11-18T03:22:07;2.80;;;2.40;;
76978;SDS011;65911;47.502;19.148;2023-11-18T03:25:09;2.50;;;2.10;;
76978;SDS011;65911;47.502;19.148;2023-11-18T03:28:11;2.63;;;1.92;;
76978;SDS011;65911;47.502;19.148;2023-11-18T03:31:14;1.92;;;1.50;;
76978;SDS011;65911;47.502;19.148;2023-11-18T03:34:18;2.70;;;2.50;;
76978;SDS011;65911;47.502;19.148;2023-11-18T03:37:23;2.88;;;2.35;;
76978;SDS011;65911;47.502;19.148;2023-11-18T03:40:25;3.25;;;2.65;;
76978;SDS011;65911;47.502;19.148;2023-11-18T03:43:27;2.90;;;2.30;;
76978;SDS011;65911;47.502;19.148;2023-11-18T03:46:31;3.38;;;2.25;;
76978;SDS011;65911;47.502;19.148;2023-11-18T03:49:36;2.50;;;2.30;;
76978;SDS011;65911;47.502;19.148;2023-11-18T03:52:39;2.63;;;2.42;;
76978;SDS011;65911;47.502;19.148;2023-11-18T03:55:41;2.57;;;2.10;;
76978;SDS011;65911;47.502;19.148;2023-11-18T03:58:44;3.08;;;2.67;;
76978;SDS011;65911;47.502;19.148;2023-11-18T04:01:49;3.05;;;2.53;;
76978;SDS011;65911;47.502;19.148;2023-11-18T04:04:52;3.63;;;2.43;;
76978;SDS011;65911;47.502;19.148;2023-11-18T04:07:55;3.13;;;2.22;;
76978;SDS011;65911;47.502;19.148;2023-11-18T04:10:57;2.55;;;2.25;;
76978;SDS011;65911;47.502;19.148;2023-11-18T04:14:00;3.55;;;2.67;;
76978;SDS011;65911;47.502;19.148;2023-11-18T04:17:02;2.95;;;2.45;;
76978;SDS011;65911;47.502;19.148;2023-11-18T04:20:05;2.90;;;2.38;;
76978;SDS011;65911;47.502;19.148;2023-11-18T04:23:12;3.85;;;2.58;;
76978;SDS011;65911;47.502;19.148;2023-11-18T04:26:16;3.03;;;2.27;;
76978;SDS011;65911;47.502;19.148;2023-11-18T04:29:18;3.15;;;2.85;;
76978;SDS011;65911;47.502;19.148;2023-11-18T04:32:20;3.53;;;2.45;;
76978;SDS011;65911;47.502;19.148;2023-11-18T04:35:22;3.00;;;2.43;;
76978;SDS011;65911;47.502;19.148;2023-11-18T04:38:26;3.05;;;2.72;;
76978;SDS011;65911;47.502;19.148;2023-11-18T04:41:29;3.88;;;2.63;;
76978;SDS011;65911;47.502;19.148;2023-11-18T04:44:38;3.85;;;2.40;;
76978;SDS011;65911;47.502;19.148;2023-11-18T04:47:43;3.17;;;2.78;;
76978;SDS011;65911;47.502;19.148;2023-11-18T04:50:58;3.55;;;2.60;;
76978;SDS011;65911;47.502;19.148;2023-11-18T04:54:00;3.03;;;2.72;;
76978;SDS011;65911;47.502;19.148;2023-11-18T04:57:02;4.00;;;2.33;;
76978;SDS011;65911;47.502;19.148;2023-11-18T05:00:05;2.50;;;2.30;;
76978;SDS011;65911;47.502;19.148;2023-11-18T05:03:12;2.58;;;2.30;;
76978;SDS011;65911;47.502;19.148;2023-11-18T05:06:15;2.80;;;2.23;;
76978;SDS011;65911;47.502;19.148;2023-11-18T05:09:17;2.47;;;2.28;;
76978;SDS011;65911;47.502;19.148;2023-11-18T05:12:20;2.65;;;2.33;;
76978;SDS011;65911;47.502;19.148;2023-11-18T05:15:22;2.85;;;2.58;;
76978;SDS011;65911;47.502;19.148;2023-11-18T05:18:26;2.63;;;2.38;;
76978;SDS011;65911;47.502;19.148;2023-11-18T05:21:31;3.03;;;2.58;;
76978;SDS011;65911;47.502;19.148;2023-11-18T05:24:34;2.45;;;2.20;;
76978;SDS011;65911;47.502;19.148;2023-11-18T05:27:36;2.77;;;2.20;;
76978;SDS011;65911;47.502;19.148;2023-11-18T05:30:40;3.95;;;2.65;;
76978;SDS011;65911;47.502;19.148;2023-11-18T05:33:45;3.33;;;2.33;;
76978;SDS011;65911;47.502;19.148;2023-11-18T05:36:53;3.63;;;2.47;;
76978;SDS011;65911;47.502;19.148;2023-11-18T05:39:56;3.75;;;2.28;;
76978;SDS011;65911;47.502;19.148;2023-11-18T05:43:07;2.42;;;2.15;;
76978;SDS011;65911;47.502;19.148;2023-11-18T05:46:18;3.05;;;2.33;;
76978;SDS011;65911;47.502;19.148;2023-11-18T05:49:25;3.20;;;2.47;;
76978;SDS011;65911;47.502;19.148;2023-11-18T05:52:27;4.07;;;2.03;;
76978;SDS011;65911;47.502;19.148;2023-11-18T05:55:29;2.97;;;2.30;;
76978;SDS011;65911;47.502;19.148;2023-11-18T05:58:31;3.90;;;2.03;;
76978;SDS011;65911;47.502;19.148;2023-11-18T06:01:34;3.95;;;2.00;;
76978;SDS011;65911;47.502;19.148;2023-11-18T06:04:39;3.03;;;2.00;;
76978;SDS011;65911;47.502;19.148;2023-11-18T06:07:41;2.60;;;2.40;;
76978;SDS011;65911;47.502;19.148;2023-11-18T06:10:45;2.50;;;2.30;;
76978;SDS011;65911;47.502;19.148;2023-11-18T06:13:48;3.70;;;2.08;;
76978;SDS011;65911;47.502;19.148;2023-11-18T06:16:52;2.50;;;2.17;;
76978;SDS011;65911;47.502;19.148;2023-11-18T06:19:54;2.67;;;2.47;;
76978;SDS011;65911;47.502;19.148;2023-11-18T06:22:57;3.72;;;2.30;;
76978;SDS011;65911;47.502;19.148;2023-11-18T06:25:59;3.25;;;2.45;;
76978;SDS011;65911;47.502;19.148;2023-11-18T06:29:02;3.77;;;2.27;;
76978;SDS011;65911;47.502;19.148;2023-11-18T06:32:06;3.00;;;2.22;;
76978;SDS011;65911;47.502;19.148;2023-11-18T06:35:10;3.00;;;2.40;;
76978;SDS011;65911;47.502;19.148;2023-11-18T06:38:13;2.57;;;2.17;;
76978;SDS011;65911;47.502;19.148;2023-11-18T06:41:17;2.75;;;2.30;;
76978;SDS011;65911;47.502;19.148;2023-11-18T06:44:21;2.90;;;2.10;;
76978;SDS011;65911;47.502;19.148;2023-11-18T06:47:26;3.28;;;2.40;;
76978;SDS011;65911;47.502;19.148;2023-11-18T06:50:28;2.67;;;2.40;;
76978;SDS011;65911;47.502;19.148;2023-11-18T06:53:31;3.60;;;2.15;;
76978;SDS011;65911;47.502;19.148;2023-11-18T06:56:34;3.65;;;2.53;;
76978;SDS011;65911;47.502;19.148;2023-11-18T06:59:40;2.20;;;1.83;;
76978;SDS011;65911;47.502;19.148;2023-11-18T07:02:42;2.58;;;2.22;;
76978;SDS011;65911;47.502;19.148;2023-11-18T07:05:44;2.53;;;2.10;;
76978;SDS011;65911;47.502;19.148;2023-11-18T07:08:46;2.23;;;1.97;;
76978;SDS011;65911;47.502;19.148;2023-11-18T07:11:50;2.92;;;2.20;;
76978;SDS011;65911;47.502;19.148;2023-11-18T07:14:53;2.00;;;1.80;;
76978;SDS011;65911;47.502;19.148;2023-11-18T07:17:56;3.17;;;2.25;;
76978;SDS011;65911;47.502;19.148;2023-11-18T07:21:01;2.45;;;2.25;;
76978;SDS011;65911;47.502;19.148;2023-11-18T07:24:06;2.63;;;2.40;;
76978;SDS011;65911;47.502;19.148;2023-11-18T07:27:09;6.88;;;2.20;;
76978;SDS011;65911;47.502;19.148;2023-11-18T07:30:13;3.03;;;1.93;;
76978;SDS011;65911;47.502;19.148;2023-11-18T07:33:16;1.75;;;1.58;;
76978;SDS011;65911;47.502;19.148;2023-11-18T07:36:18;2.75;;;1.63;;
76978;SDS011;65911;47.502;19.148;2023-11-18T07:39:23;2.87;;;1.53;;
76978;SDS011;65911;47.502;19.148;2023-11-18T07:42:37;1.80;;;1.70;;
76978;SDS011;65911;47.502;19.148;2023-11-18T07:45:40;2.65;;;1.30;;
76978;SDS011;65911;47.502;19.148;2023-11-18T07:48:43;1.60;;;1.50;;
76978;SDS011;65911;47.502;19.148;2023-11-18T07:51:46;2.10;;;1.90;;
76978;SDS011;65911;47.502;19.148;2023-11-18T07:54:48;2.25;;;1.45;;
76978;SDS011;65911;47.502;19.148;2023-11-18T07:57:54;2.97;;;1.73;;
76978;SDS011;65911;47.502;19.148;2023-11-18T08:00:56;1.57;;;1.30;;
76978;SDS011;65911;47.502;19.148;2023-11-18T08:04:01;2.55;;;1.95;;
76978;SDS011;65911;47.502;19.148;2023-11-18T08:07:03;1.20;;;1.10;;
76978;SDS011;65911;47.502;19.148;2023-11-18T08:10:09;2.07;;;1.87;;
76978;SDS011;65911;47.502;19.148;2023-11-18T08:13:15;1.48;;;1.10;;
76978;SDS011;65911;47.502;19.148;2023-11-18T08:16:18;4.65;;;1.65;;
76978;SDS011;65911;47.502;19.148;2023-11-18T08:19:20;2.25;;;1.85;;
76978;SDS011;65911;47.502;19.148;2023-11-18T08:22:24;2.38;;;1.92;;
76978;SDS011;65911;47.502;19.148;2023-11-18T08:25:27;2.13;;;1.60;;
76978;SDS011;65911;47.502;19.148;2023-11-18T08:28:29;1.73;;;1.42;;
76978;SDS011;65911;47.502;19.148;2023-11-18T08:31:31;2.03;;;1.47;;
76978;SDS011;65911;47.502;19.148;2023-11-18T08:34:35;2.60;;;1.27;;
76978;SDS011;65911;47.502;19.148;2023-11-18T08:37:39;2.53;;;1.30;;
76978;SDS011;65911;47.502;19.148;2023-11-18T08:40:42;1.43;;;1.30;;
76978;SDS011;65911;47.502;19.148;2023-11-18T08:43:47;1.50;;;1.20;;
76978;SDS011;65911;47.502;19.148;2023-11-18T08:46:51;1.40;;;1.30;;
76978;SDS011;65911;47.502;19.148;2023-11-18T08:49:54;2.65;;;1.38;;
76978;SDS011;65911;47.502;19.148;2023-11-18T08:52:57;2.08;;;1.10;;
76978;SDS011;65911;47.502;19.148;2023-11-18T08:56:11;1.60;;;1.48;;
76978;SDS011;65911;47.502;19.148;2023-11-18T08:59:19;1.70;;;1.60;;
76978;SDS011;65911;47.502;19.148;2023-11-18T09:02:26;1.80;;;1.40;;
76978;SDS011;65911;47.502;19.148;2023-11-18T09:05:35;2.00;;;1.60;;
76978;SDS011;65911;47.502;19.148;2023-11-18T09:08:38;2.22;;;1.35;;
76978;SDS011;65911;47.502;19.148;2023-11-18T09:11:41;1.67;;;1.20;;
76978;SDS011;65911;47.502;19.148;2023-11-18T09:14:44;3.50;;;1.50;;
76978;SDS011;65911;47.502;19.148;2023-11-18T09:17:49;2.17;;;1.30;;
76978;SDS011;65911;47.502;19.148;2023-11-18T09:20:52;1.80;;;1.45;;
76978;SDS011;65911;47.502;19.148;2023-11-18T09:23:54;4.35;;;1.73;;
76978;SDS011;65911;47.502;19.148;2023-11-18T09:26:58;2.03;;;1.20;;
76978;SDS011;65911;47.502;19.148;2023-11-18T09:30:01;2.22;;;1.48;;
76978;SDS011;65911;47.502;19.148;2023-11-18T09:33:04;1.23;;;0.90;;
76978;SDS011;65911;47.502;19.148;2023-11-18T09:36:15;1.20;;;0.80;;
76978;SDS011;65911;47.502;19.148;2023-11-18T09:39:20;1.65;;;1.10;;
76978;SDS011;65911;47.502;19.148;2023-11-18T09:42:39;1.20;;;1.10;;
76978;SDS011;65911;47.502;19.148;2023-11-18T09:45:43;1.10;;;1.00;;
76978;SDS011;65911;47.502;19.148;2023-11-18T09:48:51;1.55;;;0.93;;
76978;SDS011;65911;47.502;19.148;2023-11-18T09:52:03;2.38;;;1.35;;
76978;SDS011;65911;47.502;19.148;2023-11-18T09:55:15;1.25;;;0.88;;
76978;SDS011;65911;47.502;19.148;2023-11-18T09:58:30;2.13;;;1.17;;
76978;SDS011;65911;47.502;19.148;2023-11-18T10:01:43;4.15;;;1.30;;
76978;SDS011;65911;47.502;19.148;2023-11-18T10:04:49;1.10;;;1.00;;
76978;SDS011;65911;47.502;19.148;2023-11-18T10:07:59;1.90;;;1.38;;
76978;SDS011;65911;47.502;19.148;2023-11-18T10:11:04;3.10;;;1.30;;
76978;SDS011;65911;47.502;19.148;2023-11-18T10:14:11;3.97;;;1.20;;
76978;SDS011;65911;47.502;19.148;2023-11-18T10:17:17;1.40;;;0.93;;
76978;SDS011;65911;47.502;19.148;2023-11-18T10:20:45;3.58;;;1.08;;
76978;SDS011;65911;47.502;19.148;2023-11-18T10:23:58;3.22;;;1.30;;
76978;SDS011;65911;47.502;19.148;2023-11-18T10:27:02;1.55;;;1.00;;
76978;SDS011;65911;47.502;19.148;2023-11-18T10:30:10;1.25;;;0.90;;
76978;SDS011;65911;47.502;19.148;2023-11-18T10:33:21;4.28;;;1.30;;
76978;SDS011;65911;47.502;19.148;2023-11-18T10:36:23;1.53;;;0.83;;
76978;SDS011;65911;47.502;19.148;2023-11-18T10:39:31;1.38;;;1.05;;
76978;SDS011;65911;47.502;19.148;2023-11-18T10:42:33;3.58;;;1.45;;
76978;SDS011;65911;47.502;19.148;2023-11-18T10:45:36;2.73;;;0.90;;
76978;SDS011;65911;47.502;19.148;2023-11-18T10:48:47;1.35;;;0.88;;
76978;SDS011;65911;47.502;19.148;2023-11-18T10:51:50;2.00;;;1.00;;
76978;SDS011;65911;47.502;19.148;2023-11-18T10:54:53;0.93;;;0.57;;
76978;SDS011;65911;47.502;19.148;2023-11-18T10:57:58;1.30;;;1.08;;
76978;SDS011;65911;47.502;19.148;2023-11-18T11:01:04;1.90;;;0.80;;
76978;SDS011;65911;47.502;19.148;2023-11-18T11:04:08;2.83;;;1.10;;
76978;SDS011;65911;47.502;19.148;2023-11-18T11:07:14;1.00;;;0.70;;
76978;SDS011;65911;47.502;19.148;2023-11-18T11:10:17;1.17;;;0.65;;
76978;SDS011;65911;47.502;19.148;2023-11-18T11:13:27;1.02;;;0.68;;
76978;SDS011;65911;47.502;19.148;2023-11-18T11:16:33;0.73;;;0.73;;
76978;SDS011;65911;47.502;19.148;2023-11-18T11:20:23;4.38;;;1.00;;
76978;SDS011;65911;47.502;19.148;2023-11-18T11:23:49;1.95;;;0.80;;
76978;SDS011;65911;47.502;19.148;2023-11-18T11:27:04;1.02;;;0.80;;
76978;SDS011;65911;47.502;19.148;2023-11-18T11:30:46;3.63;;;0.63;;
76978;SDS011;65911;47.502;19.148;2023-11-18T11:33:58;0.80;;;0.63;;
76978;SDS011;65911;47.502;19.148;2023-11-18T11:37:08;4.53;;;0.70;;
76978;SDS011;65911;47.502;19.148;2023-11-18T11:40:13;5.30;;;0.70;;
76978;SDS011;65911;47.502;19.148;2023-11-18T11:43:23;2.40;;;1.00;;
76978;SDS011;65911;47.502;19.148;2023-11-18T11:46:29;1.83;;;0.80;;
76978;SDS011;65911;47.502;19.148;2023-11-18T11:49:39;1.57;;;0.60;;
76978;SDS011;65911;47.502;19.148;2023-11-18T11:52:51;0.75;;;0.68;;
76978;SDS011;65911;47.502;19.148;2023-11-18T11:55:56;1.02;;;0.73;;
76978;SDS011;65911;47.502;19.148;2023-11-18T11:59:07;0.75;;;0.75;;
76978;SDS011;65911;47.502;19.148;2023-11-18T12:02:13;3.58;;;1.35;;
76978;SDS011;65911;47.502;19.148;2023-11-18T12:05:18;1.98;;;0.82;;
76978;SDS011;65911;47.502;19.148;2023-11-18T12:08:24;1.40;;;0.93;;
76978;SDS011;65911;47.502;19.148;2023-11-18T12:11:27;0.47;;;0.47;;
76978;SDS011;65911;47.502;19.148;2023-11-18T12:14:49;3.10;;;0.80;;
76978;SDS011;65911;47.502;19.148;2023-11-18T12:21:02;1.33;;;0.70;;
76978;SDS011;65911;47.502;19.148;2023-11-18T12:24:14;1.45;;;0.52;;
76978;SDS011;65911;47.502;19.148;2023-11-18T12:27:40;2.25;;;0.40;;
76978;SDS011;65911;47.502;19.148;2023-11-18T12:30:57;0.60;;;0.60;;
76978;SDS011;65911;47.502;19.148;2023-11-18T12:34:02;0.80;;;0.70;;
76978;SDS011;65911;47.502;19.148;2023-11-18T12:37:47;0.80;;;0.73;;
76978;SDS011;65911;47.502;19.148;2023-11-18T12:40:54;0.50;;;0.50;;
76978;SDS011;65911;47.502;19.148;2023-11-18T12:44:08;1.10;;;0.90;;
76978;SDS011;65911;47.502;19.148;2023-11-18T12:47:20;0.90;;;0.65;;
76978;SDS011;65911;47.502;19.148;2023-11-18T12:50:24;0.50;;;0.50;;
76978;SDS011;65911;47.502;19.148;2023-11-18T12:53:30;0.60;;;0.60;;
76978;SDS011;65911;47.502;19.148;2023-11-18T12:56:32;0.90;;;0.80;;
76978;SDS011;65911;47.502;19.148;2023-11-18T12:59:35;1.58;;;0.98;;
76978;SDS011;65911;47.502;19.148;2023-11-18T13:02:39;0.70;;;0.70;;
76978;SDS011;65911;47.502;19.148;2023-11-18T13:05:43;2.25;;;0.55;;
76978;SDS011;65911;47.502;19.148;2023-11-18T13:08:45;1.48;;;0.60;;
76978;SDS011;65911;47.502;19.148;2023-11-18T13:11:48;1.83;;;0.85;;
76978;SDS011;65911;47.502;19.148;2023-11-18T13:14:50;0.77;;;0.50;;
76978;SDS011;65911;47.502;19.148;2023-11-18T13:18:00;1.85;;;0.68;;
76978;SDS011;65911;47.502;19.148;2023-11-18T13:21:03;1.88;;;0.50;;
76978;SDS011;65911;47.502;19.148;2023-11-18T13:24:06;0.70;;;0.70;;
76978;SDS011;65911;47.502;19.148;2023-11-18T13:27:11;1.38;;;0.68;;
76978;SDS011;65911;47.502;19.148;2023-11-18T13:30:15;1.50;;;0.65;;
76978;SDS011;65911;47.502;19.148;2023-11-18T13:33:19;0.95;;;0.60;;
76978;SDS011;65911;47.502;19.148;2023-11-18T13:36:23;0.80;;;0.80;;
76978;SDS011;65911;47.502;19.148;2023-11-18T13:39:26;0.63;;;0.63;;
76978;SDS011;65911;47.502;19.148;2023-11-18T13:42:29;0.80;;;0.80;;
76978;SDS011;65911;47.502;19.148;2023-11-18T13:45:32;1.30;;;0.60;;
76978;SDS011;65911;47.502;19.148;2023-11-18T13:48:46;1.02;;;0.88;;
76978;SDS011;65911;47.502;19.148;2023-11-18T13:51:51;1.00;;;0.70;;
76978;SDS011;65911;47.502;19.148;2023-11-18T13:54:53;0.90;;;0.67;;
76978;SDS011;65911;47.502;19.148;2023-11-18T13:57:58;1.00;;;0.60;;
76978;SDS011;65911;47.502;19.148;2023-11-18T14:01:01;1.02;;;0.93;;
76978;SDS011;65911;47.502;19.148;2023-11-18T14:04:03;1.15;;;0.93;;
76978;SDS011;65911;47.502;19.148;2023-11-18T14:07:06;2.10;;;0.80;;
76978;SDS011;65911;47.502;19.148;2023-11-18T14:10:11;1.08;;;0.80;;
76978;SDS011;65911;47.502;19.148;2023-11-18T14:13:17;1.30;;;1.02;;
76978;SDS011;65911;47.502;19.148;2023-11-18T14:16:21;0.73;;;0.60;;
76978;SDS011;65911;47.502;19.148;2023-11-18T14:19:25;1.20;;;0.75;;
76978;SDS011;65911;47.502;19.148;2023-11-18T14:22:28;1.92;;;1.00;;
76978;SDS011;65911;47.502;19.148;2023-11-18T14:25:33;2.57;;;0.80;;
76978;SDS011;65911;47.502;19.148;2023-11-18T14:28:39;0.82;;;0.60;;
76978;SDS011;65911;47.502;19.148;2023-11-18T14:31:42;0.75;;;0.68;;
76978;SDS011;65911;47.502;19.148;2023-11-18T14:34:44;3.13;;;1.05;;
76978;SDS011;65911;47.502;19.148;2023-11-18T14:37:47;3.78;;;0.75;;
76978;SDS011;65911;47.502;19.148;2023-11-18T14:40:49;2.45;;;0.82;;
76978;SDS011;65911;47.502;19.148;2023-11-18T14:43:52;1.02;;;0.82;;
76978;SDS011;65911;47.502;19.148;2023-11-18T14:46:54;1.13;;;0.40;;
76978;SDS011;65911;47.502;19.148;2023-11-18T14:49:57;2.35;;;0.82;;
76978;SDS011;65911;47.502;19.148;2023-11-18T14:53:00;4.07;;;0.57;;
76978;SDS011;65911;47.502;19.148;2023-11-18T14:56:03;1.63;;;0.90;;
76978;SDS011;65911;47.502;19.148;2023-11-18T14:59:07;0.95;;;0.65;;
76978;SDS011;65911;47.502;19.148;2023-11-18T15:02:10;1.98;;;1.00;;
76978;SDS011;65911;47.502;19.148;2023-11-18T15:05:13;1.67;;;0.73;;
76978;SDS011;65911;47.502;19.148;2023-11-18T15:08:21;1.25;;;0.95;;
76978;SDS011;65911;47.502;19.148;2023-11-18T15:11:24;1.88;;;0.90;;
76978;SDS011;65911;47.502;19.148;2023-11-18T15:14:27;1.45;;;0.95;;
76978;SDS011;65911;47.502;19.148;2023-11-18T15:17:30;2.40;;;0.80;;
76978;SDS011;65911;47.502;19.148;2023-11-18T15:20:48;3.38;;;1.02;;
76978;SDS011;65911;47.502;19.148;2023-11-18T15:23:51;1.55;;;0.98;;
76978;SDS011;65911;47.502;19.148;2023-11-18T15:26:53;1.30;;;0.90;;
76978;SDS011;65911;47.502;19.148;2023-11-18T15:29:56;2.28;;;1.10;;
76978;SDS011;65911;47.502;19.148;2023-11-18T15:33:01;1.33;;;0.93;;
76978;SDS011;65911;47.502;19.148;2023-11-18T15:36:04;1.25;;;0.77;;
76978;SDS011;65911;47.502;19.148;2023-11-18T15:39:09;1.33;;;1.23;;
76978;SDS011;65911;47.502;19.148;2023-11-18T15:42:11;2.35;;;1.50;;
76978;SDS011;65911;47.502;19.148;2023-11-18T15:45:16;1.90;;;1.13;;
76978;SDS011;65911;47.502;19.148;2023-11-18T15:48:22;1.93;;;1.10;;
76978;SDS011;65911;47.502;19.148;2023-11-18T15:51:25;3.53;;;1.10;;
76978;SDS011;65911;47.502;19.148;2023-11-18T15:54:28;2.22;;;1.60;;
76978;SDS011;65911;47.502;19.148;2023-11-18T15:57:30;3.97;;;1.80;;
76978;SDS011;65911;47.502;19.148;2023-11-18T16:00:34;1.65;;;1.17;;
76978;SDS011;65911;47.502;19.148;2023-11-18T16:03:39;1.73;;;1.30;;
76978;SDS011;65911;47.502;19.148;2023-11-18T16:06:41;2.90;;;1.48;;
76978;SDS011;65911;47.502;19.148;2023-11-18T16:09:43;1.88;;;1.17;;
76978;SDS011;65911;47.502;19.148;2023-11-18T16:12:46;2.33;;;1.40;;
76978;SDS011;65911;47.502;19.148;2023-11-18T16:15:53;3.40;;;1.73;;
76978;SDS011;65911;47.502;19.148;2023-11-18T16:18:55;2.53;;;1.30;;
76978;SDS011;65911;47.502;19.148;2023-11-18T16:21:57;2.03;;;1.30;;
76978;SDS011;65911;47.502;19.148;2023-11-18T16:25:01;2.78;;;1.80;;
76978;SDS011;65911;47.502;19.148;2023-11-18T16:28:05;3.40;;;2.17;;
76978;SDS011;65911;47.502;19.148;2023-11-18T16:31:11;2.15;;;1.52;;
76978;SDS011;65911;47.502;19.148;2023-11-18T16:34:14;3.92;;;1.90;;
76978;SDS011;65911;47.502;19.148;2023-11-18T16:37:18;4.97;;;2.00;;
76978;SDS011;65911;47.502;19.148;2023-11-18T16:40:22;2.72;;;1.90;;
76978;SDS011;65911;47.502;19.148;2023-11-18T16:43:26;3.88;;;2.10;;
76978;SDS011;65911;47.502;19.148;2023-11-18T16:46:28;3.65;;;2.15;;
76978;SDS011;65911;47.502;19.148;2023-11-18T16:49:31;4.70;;;2.23;;
76978;SDS011;65911;47.502;19.148;2023-11-18T16:52:34;4.22;;;2.00;;
76978;SDS011;65911;47.502;19.148;2023-11-18T16:55:37;2.58;;;1.80;;
76978;SDS011;65911;47.502;19.148;2023-11-18T16:58:39;2.77;;;2.10;;
76978;SDS011;65911;47.502;19.148;2023-11-18T17:01:41;4.82;;;2.10;;
76978;SDS011;65911;47.502;19.148;2023-11-18T17:04:43;3.13;;;1.88;;
76978;SDS011;65911;47.502;19.148;2023-11-18T17:07:46;3.28;;;1.85;;
76978;SDS011;65911;47.502;19.148;2023-11-18T17:10:48;2.58;;;1.70;;
76978;SDS011;65911;47.502;19.148;2023-11-18T17:13:55;3.28;;;1.88;;
76978;SDS011;65911;47.502;19.148;2023-11-18T17:16:57;3.83;;;1.90;;
76978;SDS011;65911;47.502;19.148;2023-11-18T17:20:00;2.20;;;1.63;;
76978;SDS011;65911;47.502;19.148;2023-11-18T17:23:02;3.40;;;2.10;;
76978;SDS011;65911;47.502;19.148;2023-11-18T17:26:06;4.68;;;2.10;;
76978;SDS011;65911;47.502;19.148;2023-11-18T17:29:10;3.13;;;2.10;;
76978;SDS011;65911;47.502;19.148;2023-11-18T17:32:15;4.78;;;2.08;;
76978;SDS011;65911;47.502;19.148;2023-11-18T17:35:17;3.42;;;1.95;;
76978;SDS011;65911;47.502;19.148;2023-11-18T17:38:22;5.50;;;2.50;;
76978;SDS011;65911;47.502;19.148;2023-11-18T17:41:24;3.45;;;2.30;;
76978;SDS011;65911;47.502;19.148;2023-11-18T17:44:27;2.33;;;1.85;;
76978;SDS011;65911;47.502;19.148;2023-11-18T17:47:29;4.68;;;1.85;;
76978;SDS011;65911;47.502;19.148;2023-11-18T17:50:31;2.57;;;1.83;;
76978;SDS011;65911;47.502;19.148;2023-11-18T17:53:36;4.15;;;2.63;;
76978;SDS011;65911;47.502;19.148;2023-11-18T17:56:38;2.92;;;1.77;;
76978;SDS011;65911;47.502;19.148;2023-11-18T17:59:40;3.63;;;2.30;;
76978;SDS011;65911;47.502;19.148;2023-11-18T18:02:43;3.30;;;2.00;;
76978;SDS011;65911;47.502;19.148;2023-11-18T18:05:45;3.00;;;1.92;;
76978;SDS011;65911;47.502;19.148;2023-11-18T18:08:47;3.35;;;2.47;;
76978;SDS011;65911;47.502;19.148;2023-11-18T18:11:53;3.30;;;2.00;;
76978;SDS011;65911;47.502;19.148;2023-11-18T18:14:56;3.35;;;1.90;;
76978;SDS011;65911;47.502;19.148;2023-11-18T18:17:58;2.80;;;1.98;;
76978;SDS011;65911;47.502;19.148;2023-11-18T18:21:00;4.47;;;1.93;;
76978;SDS011;65911;47.502;19.148;2023-11-18T18:24:03;4.38;;;2.10;;